createdAt,value
2019-04-26T00:00:49.610Z,18.57
2019-04-26T00:03:24.624Z,17.87
2019-04-26T00:05:54.515Z,17.73
2019-04-26T00:08:24.147Z,18.90
2019-04-26T00:11:12.676Z,16.67
2019-04-26T00:14:07.007Z,16.80
2019-04-26T00:16:42.708Z,17.87
2019-04-26T00:19:12.359Z,17.90
2019-04-26T00:21:42.447Z,17.87
2019-04-26T00:24:13.105Z,18.37
2019-04-26T00:26:42.790Z,17.03
2019-04-26T00:29:12.675Z,18.83
2019-04-26T00:31:42.432Z,19.43
2019-04-26T00:34:13.337Z,18.13
2019-04-26T00:36:43.223Z,19.07
2019-04-26T00:39:14.250Z,18.93
2019-04-26T00:41:44.232Z,19.27
2019-04-26T00:44:14.883Z,18.97
2019-04-26T00:46:48.385Z,20.23
2019-04-26T00:49:19.395Z,18.70
2019-04-26T00:51:50.322Z,19.50
2019-04-26T00:54:20.788Z,18.87
2019-04-26T00:56:51.008Z,19.83
2019-04-26T00:59:21.311Z,18.50
2019-04-26T01:01:55.167Z,18.43
2019-04-26T01:04:25.064Z,18.50
2019-04-26T01:06:56.404Z,18.00
2019-04-26T01:09:26.054Z,18.87
2019-04-26T01:11:55.667Z,18.73
2019-04-26T01:14:26.174Z,16.57
2019-04-26T01:16:56.007Z,17.87
2019-04-26T01:19:26.556Z,17.27
2019-04-26T01:22:00.612Z,16.97
2019-04-26T01:24:33.211Z,17.37
2019-04-26T01:27:05.046Z,17.97
2019-04-26T01:29:36.955Z,16.60
2019-04-26T01:32:11.059Z,16.13
2019-04-26T01:34:41.635Z,15.67
2019-04-26T01:37:12.085Z,16.63
2019-04-26T01:39:46.837Z,16.40
2019-04-26T01:42:29.797Z,17.30
2019-04-26T01:45:16.719Z,15.60
2019-04-26T01:47:48.967Z,16.30
2019-04-26T01:50:20.997Z,15.97
2019-04-26T01:52:52.568Z,16.20
2019-04-26T01:55:24.880Z,16.60
2019-04-26T01:57:55.179Z,15.33
2019-04-26T02:00:43.703Z,15.37
2019-04-26T02:03:21.546Z,15.47
2019-04-26T02:05:52.504Z,15.00
2019-04-26T02:08:23.435Z,15.20
2019-04-26T02:10:53.391Z,15.77
2019-04-26T02:13:25.170Z,14.47
2019-04-26T02:15:54.960Z,16.07
2019-04-26T02:18:25.513Z,16.10
2019-04-26T02:21:23.597Z,15.70
2019-04-26T02:24:30.180Z,14.57
2019-04-26T02:27:00.783Z,15.23
2019-04-26T02:29:30.665Z,15.00
2019-04-26T02:32:04.304Z,15.30
2019-04-26T02:34:37.702Z,16.00
2019-04-26T02:37:08.852Z,14.57
2019-04-26T02:39:40.956Z,15.37
2019-04-26T02:42:28.805Z,15.57
2019-04-26T02:45:29.918Z,14.53
2019-04-26T02:48:36.519Z,15.03
2019-04-26T02:51:12.485Z,15.77
2019-04-26T02:54:02.252Z,15.27
2019-04-26T02:56:37.751Z,15.83
2019-04-26T02:59:44.075Z,15.20
2019-04-26T03:02:33.271Z,15.43
2019-04-26T03:05:09.229Z,14.57
2019-04-26T03:07:54.738Z,15.53
2019-04-26T03:10:34.177Z,15.20
2019-04-26T03:13:07.593Z,16.93
2019-04-26T03:16:03.377Z,17.00
2019-04-26T03:18:54.883Z,17.17
2019-04-26T03:21:40.669Z,16.30
2019-04-26T03:24:19.983Z,16.10
2019-04-26T03:27:33.406Z,15.97
2019-04-26T03:30:24.265Z,14.67
2019-04-26T03:33:52.259Z,14.80
2019-04-26T03:37:01.596Z,15.73
2019-04-26T03:39:45.840Z,14.83
2019-04-26T03:42:54.848Z,16.63
2019-04-26T03:45:58.951Z,16.47
2019-04-26T03:48:41.742Z,16.60
2019-04-26T03:51:21.956Z,14.30
2019-04-26T03:54:05.036Z,14.53
2019-04-26T03:57:21.463Z,14.93
2019-04-26T04:00:48.477Z,12.90
2019-04-26T04:03:45.611Z,13.70
2019-04-26T04:06:21.372Z,14.07
2019-04-26T04:08:56.056Z,13.00
2019-04-26T04:11:36.434Z,12.37
2019-04-26T04:14:21.377Z,13.50
2019-04-26T04:17:26.898Z,13.07
2019-04-26T04:20:30.923Z,12.37
2019-04-26T04:23:34.737Z,35.00
2019-04-26T04:26:07.623Z,19.00
2019-04-26T04:29:18.904Z,15.80
2019-04-26T04:31:52.987Z,14.07
2019-04-26T04:34:36.612Z,12.27
2019-04-26T04:37:08.874Z,11.93
2019-04-26T04:40:12.580Z,12.90
2019-04-26T04:43:41.836Z,11.60
2019-04-26T04:46:59.121Z,12.43
2019-04-26T04:50:15.002Z,11.50
2019-04-26T04:52:58.108Z,11.00
2019-04-26T04:55:57.965Z,11.43
2019-04-26T04:58:36.685Z,11.03
2019-04-26T05:02:26.939Z,11.57
2019-04-26T05:05:26.520Z,10.30
2019-04-26T05:08:22.783Z,10.70
2019-04-26T05:11:08.175Z,11.47
2019-04-26T05:14:04.206Z,10.20
2019-04-26T05:16:46.493Z,10.23
2019-04-26T05:19:51.065Z,9.93
2019-04-26T05:22:47.310Z,10.57
2019-04-26T05:25:56.739Z,9.63
2019-04-26T05:28:39.435Z,11.23
2019-04-26T05:31:33.814Z,10.17
2019-04-26T05:34:27.806Z,9.77
2019-04-26T05:37:29.948Z,12.77
2019-04-26T05:40:08.087Z,10.43
2019-04-26T05:43:25.837Z,10.87
2019-04-26T05:46:12.783Z,9.47
2019-04-26T05:49:02.131Z,10.67
2019-04-26T05:52:06.389Z,11.33
2019-04-26T05:55:27.362Z,9.87
2019-04-26T05:58:40.264Z,9.87
2019-04-26T06:01:54.717Z,11.13
2019-04-26T06:04:57.211Z,9.57
2019-04-26T06:08:06.468Z,9.40
2019-04-26T06:10:47.611Z,9.27
2019-04-26T06:14:18.975Z,9.43
2019-04-26T06:17:21.188Z,9.70
2019-04-26T06:20:22.007Z,11.07
2019-04-26T06:23:09.339Z,9.67
2019-04-26T06:25:59.434Z,9.10
2019-04-26T06:28:56.403Z,9.27
2019-04-26T06:31:37.180Z,8.93
2019-04-26T06:34:14.563Z,10.00
2019-04-26T06:37:02.188Z,9.20
2019-04-26T06:39:54.973Z,8.33
2019-04-26T06:43:33.394Z,9.23
2019-04-26T06:46:40.292Z,10.10
2019-04-26T06:50:06.500Z,9.00
2019-04-26T06:52:42.901Z,9.03
2019-04-26T06:55:31.675Z,8.70
2019-04-26T06:58:28.728Z,9.03
2019-04-26T07:01:17.133Z,8.80
2019-04-26T07:04:16.937Z,8.20
2019-04-26T07:07:13.756Z,7.80
2019-04-26T07:10:20.113Z,8.10
2019-04-26T07:13:23.888Z,7.63
2019-04-26T07:16:19.746Z,8.60
2019-04-26T07:19:14.267Z,8.03
2019-04-26T07:22:35.212Z,7.22
2019-04-26T07:25:54.359Z,7.85
2019-04-26T07:28:45.826Z,7.53
2019-04-26T07:31:43.496Z,7.47
2019-04-26T07:34:52.539Z,8.38
2019-04-26T07:37:41.376Z,7.97
2019-04-26T07:40:58.072Z,7.35
2019-04-26T07:44:13.305Z,7.58
2019-04-26T07:47:08.534Z,8.38
2019-04-26T07:50:25.081Z,8.38
2019-04-26T07:53:21.396Z,7.87
2019-04-26T07:56:25.627Z,7.47
2019-04-26T08:00:00.452Z,6.75
2019-04-26T08:02:53.260Z,7.72
2019-04-26T08:05:38.036Z,7.45
2019-04-26T08:08:10.856Z,7.90
2019-04-26T08:10:43.016Z,7.70
2019-04-26T08:13:16.838Z,6.92
2019-04-26T08:16:10.499Z,8.33
2019-04-26T08:18:46.922Z,7.40
2019-04-26T08:21:42.501Z,5.87
2019-04-26T08:24:19.716Z,6.92
2019-04-26T08:27:23.619Z,6.80
2019-04-26T08:30:03.312Z,6.40
2019-04-26T08:32:36.581Z,6.80
2019-04-26T08:35:21.877Z,7.55
2019-04-26T08:37:55.491Z,6.75
2019-04-26T08:40:30.966Z,6.50
2019-04-26T08:43:35.532Z,6.50
2019-04-26T08:46:36.196Z,6.95
2019-04-26T08:49:25.960Z,6.78
2019-04-26T08:51:59.156Z,6.40
2019-04-26T08:54:32.843Z,6.55
2019-04-26T08:57:07.040Z,6.17
2019-04-26T08:59:42.267Z,6.22
2019-04-26T09:02:44.453Z,6.55
2019-04-26T09:05:37.262Z,6.67
2019-04-26T09:08:09.980Z,6.50
2019-04-26T09:10:43.157Z,6.62
2019-04-26T09:13:17.488Z,6.28
2019-04-26T09:16:13.204Z,6.45
2019-04-26T09:18:52.750Z,6.97
2019-04-26T09:21:19.260Z,7.08
2019-04-26T09:24:21.101Z,7.62
2019-04-26T09:27:04.532Z,7.10
2019-04-26T09:29:38.371Z,8.43
2019-04-26T09:32:13.973Z,7.22
2019-04-26T09:34:43.857Z,7.30
2019-04-26T09:37:13.487Z,7.00
2019-04-26T09:39:43.462Z,9.00
2019-04-26T09:42:44.481Z,9.00
2019-04-26T09:45:35.861Z,7.17
2019-04-26T09:48:42.861Z,7.12
2019-04-26T09:51:13.591Z,8.33
2019-04-26T09:53:44.700Z,7.03
2019-04-26T09:56:14.541Z,7.80
2019-04-26T09:58:44.165Z,7.20
2019-04-26T10:01:13.892Z,7.58
2019-04-26T10:03:43.736Z,7.65
2019-04-26T10:06:13.570Z,6.92
2019-04-26T10:08:46.744Z,7.08
2019-04-26T10:11:16.936Z,7.20
2019-04-26T10:14:00.634Z,8.63
2019-04-26T10:16:49.159Z,8.30
2019-04-26T10:19:31.680Z,8.00
2019-04-26T10:22:01.705Z,7.12
2019-04-26T10:24:32.100Z,7.25
2019-04-26T10:27:03.444Z,6.37
2019-04-26T10:29:33.090Z,8.00
2019-04-26T10:32:02.809Z,7.95
2019-04-26T10:34:32.438Z,7.72
2019-04-26T10:37:06.218Z,7.37
2019-04-26T10:39:33.943Z,6.80
2019-04-26T10:42:04.857Z,7.75
2019-04-26T10:44:35.737Z,8.40
2019-04-26T10:47:06.128Z,7.95
2019-04-26T10:49:46.826Z,8.13
2019-04-26T10:52:26.834Z,7.83
2019-04-26T10:55:21.510Z,8.83
2019-04-26T10:57:53.052Z,7.90
2019-04-26T11:00:27.615Z,8.20
2019-04-26T11:03:00.030Z,5.72
2019-04-26T11:05:28.584Z,6.03
2019-04-26T11:07:58.211Z,6.25
2019-04-26T11:10:28.492Z,5.30
2019-04-26T11:12:58.197Z,6.03
2019-04-26T11:15:29.086Z,7.60
2019-04-26T11:17:59.028Z,7.00
2019-04-26T11:20:28.721Z,6.22
2019-04-26T11:22:58.500Z,6.15
2019-04-26T11:25:29.407Z,6.87
2019-04-26T11:27:59.263Z,7.45
2019-04-26T11:30:28.861Z,7.05
2019-04-26T11:32:58.532Z,7.58
2019-04-26T11:35:29.304Z,6.40
2019-04-26T11:37:59.506Z,6.78
2019-04-26T11:40:29.269Z,6.42
2019-04-26T11:42:59.014Z,6.55
2019-04-26T11:45:28.668Z,7.37
2019-04-26T11:47:58.288Z,5.67
2019-04-26T11:50:28.019Z,6.12
2019-04-26T11:52:57.651Z,5.47
2019-04-26T11:55:29.978Z,5.62
2019-04-26T11:57:58.664Z,5.95
2019-04-26T12:00:33.068Z,6.72
2019-04-26T12:03:02.813Z,6.10
2019-04-26T12:05:39.848Z,6.35
2019-04-26T12:08:12.707Z,6.95
2019-04-26T12:10:44.330Z,5.37
2019-04-26T12:13:13.700Z,6.17
2019-04-26T12:15:44.198Z,5.85
2019-04-26T12:18:14.739Z,5.95
2019-04-26T12:20:44.367Z,5.65
2019-04-26T12:23:20.345Z,5.75
2019-04-26T12:25:48.097Z,5.50
2019-04-26T12:28:16.752Z,5.80
2019-04-26T12:30:46.445Z,5.47
2019-04-26T12:33:16.077Z,6.17
2019-04-26T12:35:45.750Z,6.50
2019-04-26T12:38:15.462Z,6.78
2019-04-26T12:40:46.202Z,6.60
2019-04-26T12:43:20.080Z,7.08
2019-04-26T12:46:22.616Z,5.67
2019-04-26T12:48:51.329Z,6.60
2019-04-26T12:51:21.140Z,6.72
2019-04-26T12:53:50.932Z,6.87
2019-04-26T12:56:20.575Z,7.97
2019-04-26T12:58:51.299Z,7.12
2019-04-26T13:01:21.148Z,6.78
2019-04-26T13:04:07.096Z,6.90
2019-04-26T13:06:42.804Z,6.42
2019-04-26T13:09:17.539Z,6.70
2019-04-26T13:12:12.122Z,7.15
2019-04-26T13:15:06.957Z,6.95
2019-04-26T13:17:53.476Z,7.25
2019-04-26T13:20:24.303Z,6.35
2019-04-26T13:22:55.884Z,7.37
2019-04-26T13:25:26.707Z,6.50
2019-04-26T13:27:56.988Z,7.00
2019-04-26T13:30:32.686Z,6.42
2019-04-26T13:32:58.064Z,6.65
2019-04-26T13:35:27.712Z,6.33
2019-04-26T13:37:58.239Z,6.90
2019-04-26T13:40:29.545Z,7.15
2019-04-26T13:42:59.323Z,6.17
2019-04-26T13:45:48.023Z,7.72
2019-04-26T13:48:55.057Z,6.70
2019-04-26T13:51:26.063Z,8.18
2019-04-26T13:53:55.731Z,7.62
2019-04-26T13:56:25.384Z,8.00
2019-04-26T13:58:58.429Z,7.33
2019-04-26T14:01:26.341Z,7.20
2019-04-26T14:03:56.092Z,7.60
2019-04-26T14:06:25.706Z,7.75
2019-04-26T14:08:58.206Z,7.97
2019-04-26T14:11:29.359Z,6.92
2019-04-26T14:13:59.988Z,6.75
2019-04-26T14:16:29.613Z,8.78
2019-04-26T14:18:59.325Z,6.90
2019-04-26T14:21:32.679Z,7.22
2019-04-26T14:24:37.358Z,6.58
2019-04-26T14:27:15.057Z,6.60
2019-04-26T14:29:42.372Z,7.42
2019-04-26T14:32:12.069Z,6.78
2019-04-26T14:34:42.001Z,7.08
2019-04-26T14:37:15.477Z,7.28
2019-04-26T14:39:50.574Z,7.00
2019-04-26T14:42:15.036Z,7.65
2019-04-26T14:44:49.451Z,7.22
2019-04-26T14:47:18.148Z,7.12
2019-04-26T14:49:48.168Z,6.72
2019-04-26T14:52:18.099Z,7.40
2019-04-26T14:54:47.984Z,7.33
2019-04-26T14:57:24.473Z,6.85
2019-04-26T14:59:57.512Z,7.60
2019-04-26T15:03:05.591Z,7.62
2019-04-26T15:05:54.104Z,7.75
2019-04-26T15:08:26.569Z,7.95
2019-04-26T15:11:01.270Z,7.15
2019-04-26T15:13:36.286Z,8.10
2019-04-26T15:16:10.469Z,8.83
2019-04-26T15:18:38.988Z,7.97
2019-04-26T15:21:09.090Z,7.15
2019-04-26T15:23:38.760Z,8.15
2019-04-26T15:26:08.476Z,8.45
2019-04-26T15:28:38.229Z,8.35
2019-04-26T15:31:07.988Z,7.05
2019-04-26T15:33:37.668Z,7.47
2019-04-26T15:36:11.213Z,8.35
2019-04-26T15:38:41.720Z,7.42
2019-04-26T15:41:36.021Z,7.90
2019-04-26T15:44:20.257Z,8.65
2019-04-26T15:46:58.829Z,7.87
2019-04-26T15:49:50.544Z,7.28
2019-04-26T15:52:20.245Z,7.92
2019-04-26T15:54:52.982Z,7.60
2019-04-26T15:57:24.420Z,7.50
2019-04-26T15:59:54.411Z,8.25
2019-04-26T16:02:26.176Z,7.78
2019-04-26T16:04:55.159Z,6.47
2019-04-26T16:07:28.812Z,6.78
2019-04-26T16:09:57.496Z,7.62
2019-04-26T16:12:27.364Z,7.47
2019-04-26T16:14:57.000Z,8.23
2019-04-26T16:17:26.612Z,7.55
2019-04-26T16:20:00.170Z,7.83
2019-04-26T16:22:30.112Z,6.75
2019-04-26T16:25:03.876Z,8.03
2019-04-26T16:27:32.426Z,7.40
2019-04-26T16:30:20.204Z,8.03
2019-04-26T16:33:09.255Z,8.28
2019-04-26T16:35:38.894Z,7.35
2019-04-26T16:38:26.315Z,7.58
2019-04-26T16:40:55.960Z,8.25
2019-04-26T16:43:37.018Z,8.18
2019-04-26T16:45:57.113Z,8.30
2019-04-26T16:48:26.814Z,7.62
2019-04-26T16:51:00.840Z,8.55
2019-04-26T16:53:43.692Z,7.37
2019-04-26T16:55:59.263Z,8.70
2019-04-26T16:58:31.019Z,7.92
2019-04-26T17:01:04.679Z,7.47
2019-04-26T17:03:32.758Z,8.03
2019-04-26T17:06:06.454Z,8.25
2019-04-26T17:08:33.896Z,9.48
2019-04-26T17:11:03.529Z,8.73
2019-04-26T17:13:36.230Z,9.28
2019-04-26T17:16:04.505Z,7.83
2019-04-26T17:18:34.123Z,8.25
2019-04-26T17:21:03.872Z,10.08
2019-04-26T17:23:52.998Z,8.75
2019-04-26T17:26:47.379Z,8.90
2019-04-26T17:29:17.053Z,9.05
2019-04-26T17:31:46.789Z,9.65
2019-04-26T17:34:16.556Z,10.03
2019-04-26T17:36:50.004Z,9.85
2019-04-26T17:39:18.450Z,11.10
2019-04-26T17:41:50.831Z,9.33
2019-04-26T17:44:26.443Z,9.83
2019-04-26T17:46:56.331Z,9.37
2019-04-26T17:49:27.230Z,12.83
2019-04-26T17:51:58.168Z,9.97
2019-04-26T17:54:43.802Z,9.90
2019-04-26T17:56:57.682Z,10.43
2019-04-26T17:59:33.494Z,11.57
2019-04-26T18:02:01.130Z,11.17
2019-04-26T18:04:36.135Z,10.33
2019-04-26T18:07:08.066Z,10.37
2019-04-26T18:09:44.708Z,11.27
2019-04-26T18:12:05.698Z,11.13
2019-04-26T18:14:35.384Z,11.63
2019-04-26T18:17:12.552Z,13.53
2019-04-26T18:19:55.253Z,12.77
2019-04-26T18:22:36.396Z,13.20
2019-04-26T18:25:11.357Z,13.20
2019-04-26T18:27:38.632Z,12.90
2019-04-26T18:30:12.249Z,12.07
2019-04-26T18:32:46.857Z,13.00
2019-04-26T18:35:15.245Z,13.20
2019-04-26T18:37:43.199Z,12.13
2019-04-26T18:40:13.020Z,12.23
2019-04-26T18:42:43.450Z,12.70
2019-04-26T18:45:13.948Z,12.93
2019-04-26T18:47:45.292Z,13.07
2019-04-26T18:50:15.705Z,13.37
2019-04-26T18:53:03.218Z,12.77
2019-04-26T18:55:34.565Z,12.53
2019-04-26T18:58:05.601Z,12.87
2019-04-26T19:00:38.043Z,12.00
2019-04-26T19:03:07.834Z,12.07
2019-04-26T19:05:37.538Z,12.37
2019-04-26T19:08:08.094Z,12.13
2019-04-26T19:10:38.575Z,12.37
2019-04-26T19:13:30.960Z,11.80
2019-04-26T19:16:16.704Z,12.00
2019-04-26T19:18:51.788Z,12.07
2019-04-26T19:21:38.667Z,11.10
2019-04-26T19:24:07.218Z,10.97
2019-04-26T19:26:35.146Z,11.53
2019-04-26T19:29:15.604Z,12.00
2019-04-26T19:31:36.272Z,11.23
2019-04-26T19:34:06.016Z,11.07
2019-04-26T19:36:35.715Z,11.40
2019-04-26T19:39:07.443Z,11.37
2019-04-26T19:41:37.109Z,11.97
2019-04-26T19:44:06.869Z,11.80
2019-04-26T19:47:04.885Z,12.17
2019-04-26T19:49:47.400Z,11.97
2019-04-26T19:52:39.508Z,11.33
2019-04-26T19:55:41.874Z,10.87
2019-04-26T19:58:16.129Z,10.80
2019-04-26T20:00:46.709Z,11.03
2019-04-26T20:03:16.778Z,10.43
2019-04-26T20:05:46.359Z,10.33
2019-04-26T20:08:16.057Z,9.70
2019-04-26T20:10:45.978Z,9.67
2019-04-26T20:13:16.743Z,10.60
2019-04-26T20:15:46.479Z,10.07
2019-04-26T20:18:17.560Z,10.43
2019-04-26T20:20:47.524Z,9.40
2019-04-26T20:23:19.508Z,9.67
2019-04-26T20:25:48.600Z,9.87
2019-04-26T20:28:22.635Z,9.43
2019-04-26T20:31:07.663Z,10.53
2019-04-26T20:33:35.028Z,10.27
2019-04-26T20:36:05.059Z,10.47
2019-04-26T20:38:42.596Z,10.80
2019-04-26T20:41:06.535Z,10.73
2019-04-26T20:43:42.107Z,10.47
2019-04-26T20:46:14.124Z,10.87
2019-04-26T20:48:39.074Z,11.17
2019-04-26T20:51:11.023Z,10.60
2019-04-26T20:53:43.484Z,10.47
2019-04-26T20:56:16.605Z,10.30
2019-04-26T20:58:46.860Z,10.70
2019-04-26T21:01:14.556Z,10.47
2019-04-26T21:03:46.071Z,10.80
2019-04-26T21:06:15.915Z,10.67
2019-04-26T21:08:45.617Z,11.23
2019-04-26T21:11:15.345Z,11.43
2019-04-26T21:13:44.986Z,10.30
2019-04-26T21:16:15.622Z,11.27
2019-04-26T21:18:45.477Z,11.83
2019-04-26T21:21:16.272Z,11.53
2019-04-26T21:23:48.487Z,10.80
2019-04-26T21:26:39.812Z,10.93
2019-04-26T21:29:27.752Z,10.87
2019-04-26T21:32:16.447Z,11.33
2019-04-26T21:34:50.781Z,11.47
2019-04-26T21:37:26.560Z,12.60
2019-04-26T21:40:11.228Z,11.30
2019-04-26T21:42:43.336Z,12.63
2019-04-26T21:45:12.280Z,11.33
2019-04-26T21:47:43.501Z,12.07
2019-04-26T21:50:13.632Z,11.47
2019-04-26T21:52:45.587Z,13.00
2019-04-26T21:55:16.703Z,11.80
2019-04-26T21:57:46.240Z,12.43
2019-04-26T22:00:36.405Z,11.77
2019-04-26T22:03:07.854Z,13.00
2019-04-26T22:05:37.715Z,11.27
2019-04-26T22:08:07.479Z,12.10
2019-04-26T22:10:44.582Z,11.37
2019-04-26T22:13:20.300Z,12.10
2019-04-26T22:15:58.937Z,12.33
2019-04-26T22:18:34.647Z,10.97
2019-04-26T22:21:10.590Z,12.43
2019-04-26T22:23:51.686Z,12.07
2019-04-26T22:26:21.611Z,11.97
2019-04-26T22:28:51.280Z,11.47
2019-04-26T22:31:20.984Z,11.63
2019-04-26T22:33:50.812Z,11.57
2019-04-26T22:36:20.475Z,11.83
2019-04-26T22:38:50.142Z,12.27
2019-04-26T22:41:19.900Z,11.10
2019-04-26T22:44:08.436Z,11.07
2019-04-26T22:47:15.442Z,10.50
2019-04-26T22:49:45.434Z,11.57
2019-04-26T22:52:16.361Z,11.70
2019-04-26T22:54:46.849Z,11.10
2019-04-26T22:57:16.665Z,12.77
2019-04-26T22:59:50.108Z,12.00
2019-04-26T23:02:25.876Z,11.93
2019-04-26T23:04:49.238Z,12.17
2019-04-26T23:07:23.259Z,12.63
2019-04-26T23:09:55.119Z,12.50
2019-04-26T23:12:33.924Z,11.00
2019-04-26T23:15:23.957Z,11.80
2019-04-26T23:18:17.229Z,10.87
2019-04-26T23:20:56.734Z,11.57
2019-04-26T23:23:26.395Z,11.30
2019-04-26T23:25:56.078Z,11.03
2019-04-26T23:28:27.704Z,11.47
2019-04-26T23:30:57.052Z,11.93
2019-04-26T23:33:26.727Z,11.83
2019-04-26T23:35:56.372Z,11.47
2019-04-26T23:38:26.006Z,11.47
2019-04-26T23:40:57.286Z,11.30
2019-04-26T23:43:27.087Z,10.80
2019-04-26T23:45:56.817Z,10.77
2019-04-26T23:48:26.456Z,9.77
2019-04-26T23:50:59.797Z,11.03
2019-04-26T23:53:27.352Z,10.37
2019-04-26T23:55:57.016Z,10.67
2019-04-26T23:58:26.740Z,9.90
